Time;durP1;ratioP1;P1;durP2;ratioP2;P2;SDS_P1;SDS_P2;PMS_P1;PMS_P2;Temp;Humidity;BMP_temperature;BMP_pressure;BME280_temperature;BME280_humidity;BME280_pressure;Samples;Min_cycle;Max_cycle;Signal;HPM_P1;HPM_P2
2022/08/11 00:01:10;;;;;;;2.70;1.77;;;18.00;99.90;;;;;;5103771;28;20193;-45
2022/08/11 00:03:44;;;;;;;2.67;2.10;;;18.00;99.90;;;;;;5100775;28;20204;-45
2022/08/11 00:06:13;;;;;;;3.83;2.10;;;17.90;99.90;;;;;;5104162;28;20259;-45
2022/08/11 00:08:41;;;;;;;3.73;2.20;;;17.90;99.90;;;;;;5117162;28;20220;-47
2022/08/11 00:11:12;;;;;;;2.13;1.93;;;17.80;99.90;;;;;;5108018;27;20201;-49
2022/08/11 00:13:44;;;;;;;2.63;2.13;;;17.80;99.90;;;;;;5098792;28;20269;-47
2022/08/11 00:16:13;;;;;;;2.67;1.93;;;17.80;99.90;;;;;;5114570;28;20201;-45
2022/08/11 00:18:43;;;;;;;2.27;2.10;;;17.70;99.90;;;;;;5100214;28;20213;-48
2022/08/11 00:21:11;;;;;;;1.80;1.67;;;17.70;99.90;;;;;;5112272;28;20196;-45
2022/08/11 00:23:43;;;;;;;1.77;1.67;;;17.70;99.90;;;;;;5095020;28;20229;-47
2022/08/11 00:26:13;;;;;;;4.20;1.73;;;17.60;99.90;;;;;;5114089;27;20197;-44
2022/08/11 00:28:40;;;;;;;2.50;2.00;;;17.60;99.90;;;;;;5100144;27;20220;-51
2022/08/11 00:31:09;;;;;;;2.17;1.97;;;17.60;99.90;;;;;;5116264;27;20281;-50
2022/08/11 00:33:39;;;;;;;3.30;2.43;;;17.60;99.90;;;;;;5105149;27;20197;-47
2022/08/11 00:36:08;;;;;;;2.50;2.23;;;17.50;99.90;;;;;;5105599;28;20204;-46
2022/08/11 00:38:38;;;;;;;1.80;1.70;;;17.50;99.90;;;;;;5107296;27;20211;-46
2022/08/11 00:41:22;;;;;;;5.37;1.90;;;17.50;99.90;;;;;;5112226;27;20886;-45
2022/08/11 00:44:14;;;;;;;5.90;2.30;;;17.50;99.90;;;;;;5099849;27;20208;-45
2022/08/11 00:46:49;;;;;;;4.63;2.10;;;17.50;99.90;;;;;;5099141;27;20216;-48
2022/08/11 00:49:23;;;;;;;3.80;1.80;;;17.50;99.90;;;;;;5110906;27;20220;-45
2022/08/11 00:52:07;;;;;;;3.53;2.33;;;17.50;99.90;;;;;;5110758;27;20192;-46
2022/08/11 00:55:04;;;;;;;3.73;2.13;;;17.40;99.90;;;;;;5104067;27;20201;-47
2022/08/11 00:57:56;;;;;;;3.73;2.20;;;17.40;99.90;;;;;;5123078;27;20207;-47
2022/08/11 01:00:25;;;;;;;4.00;2.00;;;17.40;99.90;;;;;;5104414;27;20217;-48
2022/08/11 01:03:17;;;;;;;4.73;2.27;;;17.40;99.90;;;;;;5111971;27;20201;-44
2022/08/11 01:06:00;;;;;;;2.70;1.83;;;17.30;99.90;;;;;;5102374;27;20207;-45
2022/08/11 01:08:58;;;;;;;2.03;1.73;;;17.30;99.90;;;;;;5123026;27;20252;-45
2022/08/11 01:11:52;;;;;;;2.83;2.13;;;17.30;99.90;;;;;;5090972;27;20217;-45
2022/08/11 01:15:23;;;;;;;2.93;1.80;;;17.20;99.90;;;;;;5119175;27;20192;-45
2022/08/11 01:18:27;;;;;;;3.93;2.33;;;17.20;99.90;;;;;;5094160;27;20204;-45
2022/08/11 01:21:25;;;;;;;3.93;2.20;;;17.10;99.90;;;;;;5105116;27;20211;-46
2022/08/11 01:24:28;;;;;;;4.30;1.87;;;17.10;99.90;;;;;;5108446;27;20562;-46
2022/08/11 01:27:22;;;;;;;3.20;2.00;;;17.00;99.90;;;;;;5107954;27;20220;-45
2022/08/11 01:30:15;;;;;;;2.57;1.70;;;17.00;99.90;;;;;;5110368;27;20558;-45
2022/08/11 01:33:34;;;;;;;2.73;2.10;;;17.00;99.90;;;;;;5103665;27;20205;-46
2022/08/11 01:36:58;;;;;;;3.23;1.90;;;16.90;99.90;;;;;;5101299;27;20811;-46
2022/08/11 01:39:52;;;;;;;2.43;2.20;;;16.90;99.90;;;;;;5104182;27;20209;-45
2022/08/11 01:45:47;;;;;;;2.23;2.03;;;16.80;99.90;;;;;;5121829;27;20207;-45
2022/08/11 01:48:20;;;;;;;3.30;1.90;;;16.80;99.90;;;;;;5094947;27;20193;-45
2022/08/11 01:51:02;;;;;;;3.60;2.20;;;16.70;99.90;;;;;;5113358;27;20189;-45
2022/08/11 01:53:38;;;;;;;2.30;2.00;;;16.70;99.90;;;;;;5105515;27;21136;-45
2022/08/11 01:56:29;;;;;;;2.27;2.17;;;16.60;99.90;;;;;;5113346;27;20204;-49
2022/08/11 01:59:07;;;;;;;3.00;2.00;;;16.60;99.90;;;;;;5103154;27;20221;-45
2022/08/11 02:01:45;;;;;;;3.40;2.20;;;16.60;99.90;;;;;;5123514;27;20207;-45
2022/08/11 02:04:21;;;;;;;2.40;2.20;;;16.60;99.90;;;;;;5099436;27;20212;-46
2022/08/11 02:06:53;;;;;;;2.23;1.90;;;16.50;99.90;;;;;;5108987;27;20193;-46
2022/08/11 02:09:40;;;;;;;4.00;2.37;;;16.50;99.90;;;;;;5107961;27;20200;-45
2022/08/11 02:12:14;;;;;;;3.43;2.17;;;16.50;99.90;;;;;;5103031;27;20270;-45
2022/08/11 02:14:49;;;;;;;3.10;2.53;;;16.50;99.90;;;;;;5099349;27;20288;-45
2022/08/11 02:17:20;;;;;;;2.77;2.10;;;16.50;99.90;;;;;;5100897;28;20253;-45
2022/08/11 02:25:50;;;;;;;3.77;2.30;;;16.40;99.90;;;;;;5119903;27;20766;-46
2022/08/11 02:28:24;;;;;;;3.27;2.43;;;16.30;99.90;;;;;;5104545;27;20221;-45
2022/08/11 02:33:43;;;;;;;3.63;2.10;;;16.30;99.90;;;;;;5106360;27;22467;-47
2022/08/11 02:36:18;;;;;;;1.90;1.80;;;16.20;99.90;;;;;;5098879;27;20245;-48
2022/08/11 02:38:53;;;;;;;2.80;2.10;;;16.20;99.90;;;;;;5108465;27;20216;-49
2022/08/11 02:44:21;;;;;;;4.73;2.37;;;16.30;99.90;;;;;;5100180;27;20601;-48
2022/08/11 02:46:56;;;;;;;3.07;2.00;;;16.20;99.90;;;;;;5109472;27;20249;-46
2022/08/11 02:49:55;;;;;;;2.87;2.53;;;16.20;99.90;;;;;;5104261;27;20224;-46
2022/08/11 02:52:33;;;;;;;2.67;2.27;;;16.10;99.90;;;;;;5105618;27;20189;-45
2022/08/11 02:55:17;;;;;;;2.87;1.83;;;16.10;99.90;;;;;;5101479;27;20200;-50
2022/08/11 02:57:52;;;;;;;3.37;2.57;;;16.10;99.90;;;;;;5104688;27;20196;-47
2022/08/11 03:00:20;;;;;;;3.43;2.20;;;16.00;99.90;;;;;;5102703;27;20215;-48
2022/08/11 03:02:56;;;;;;;3.27;2.17;;;16.00;99.90;;;;;;5104671;27;20220;-45
2022/08/11 03:05:33;;;;;;;2.57;2.37;;;16.00;99.90;;;;;;5086964;27;20218;-44
2022/08/11 03:08:17;;;;;;;3.60;2.10;;;16.00;99.90;;;;;;5110830;27;20203;-45
2022/08/11 03:19:24;;;;;;;3.07;2.33;;;15.80;99.90;;;;;;5099758;28;20938;-46
2022/08/11 03:22:03;;;;;;;2.43;2.07;;;15.80;99.90;;;;;;5103955;28;20637;-47
2022/08/11 03:24:40;;;;;;;2.10;2.00;;;15.70;99.90;;;;;;5103657;28;20250;-45
2022/08/11 03:27:10;;;;;;;2.30;2.10;;;15.70;99.90;;;;;;5100730;28;20193;-49
2022/08/11 03:29:47;;;;;;;2.43;2.23;;;15.70;99.90;;;;;;5109487;28;20231;-45
2022/08/11 03:32:28;;;;;;;2.70;2.50;;;15.60;99.90;;;;;;5104550;27;20200;-45
2022/08/11 03:34:57;;;;;;;2.53;2.33;;;15.60;99.90;;;;;;5121269;28;20560;-45
2022/08/11 03:37:51;;;;;;;4.43;2.40;;;15.60;99.90;;;;;;5102562;28;20258;-46
2022/08/11 03:43:54;;;;;;;3.23;2.40;;;15.60;99.90;;;;;;5102332;28;20248;-44
2022/08/11 03:46:35;;;;;;;3.97;2.33;;;15.50;99.90;;;;;;5104982;27;20201;-47
2022/08/11 03:49:22;;;;;;;2.57;2.47;;;15.50;99.90;;;;;;5103885;28;20216;-46
2022/08/11 03:51:56;;;;;;;3.20;2.50;;;15.50;99.90;;;;;;5107255;28;20204;-46
2022/08/11 03:54:37;;;;;;;3.83;2.40;;;15.60;99.90;;;;;;5093602;28;20204;-47
2022/08/11 03:57:54;;;;;;;2.70;2.50;;;15.60;99.90;;;;;;5120436;28;20203;-49
2022/08/11 04:00:38;;;;;;;2.40;2.20;;;15.60;99.90;;;;;;5016584;28;20414;-46
2022/08/11 04:03:37;;;;;;;2.50;2.30;;;15.60;99.90;;;;;;5098905;27;20216;-49
2022/08/11 04:06:52;;;;;;;3.47;2.43;;;15.50;99.90;;;;;;5110442;27;20205;-49
2022/08/11 04:09:55;;;;;;;4.30;2.77;;;15.50;99.90;;;;;;5094563;27;20228;-62
2022/08/11 04:12:49;;;;;;;3.73;2.43;;;15.50;99.90;;;;;;5111156;27;20309;-46
2022/08/11 04:16:01;;;;;;;2.80;2.60;;;15.40;99.90;;;;;;5105110;27;20193;-46
2022/08/11 04:19:11;;;;;;;2.47;2.30;;;15.40;99.90;;;;;;5109166;27;20235;-46
2022/08/11 04:22:10;;;;;;;2.70;2.50;;;15.40;99.90;;;;;;5116236;27;20204;-47
2022/08/11 04:24:59;;;;;;;3.83;2.73;;;15.40;99.90;;;;;;5093769;27;20209;-47
2022/08/11 04:28:03;;;;;;;4.57;2.90;;;15.40;99.90;;;;;;5112866;27;20220;-46
2022/08/11 04:30:44;;;;;;;2.93;2.30;;;15.40;99.90;;;;;;5113419;27;20354;-46
2022/08/11 04:33:36;;;;;;;4.13;2.70;;;15.40;99.90;;;;;;5116388;27;20263;-46
2022/08/11 04:37:31;;;;;;;8.07;2.43;;;15.40;99.90;;;;;;5103281;28;20198;-49
2022/08/11 04:39:24;;;;;;;3.40;2.83;;;15.30;99.90;;;;;;5093180;27;20212;-47
2022/08/11 04:45:33;;;;;;;3.87;2.80;;;15.40;99.90;;;;;;5108454;27;20266;-47
2022/08/11 05:03:46;;;;;;;3.03;2.57;;;15.40;99.90;;;;;;5116059;27;20283;-49
2022/08/11 05:06:53;;;;;;;3.37;2.63;;;15.50;99.90;;;;;;5112251;27;20200;-48
2022/08/11 05:09:34;;;;;;;3.77;2.20;;;15.50;99.90;;;;;;5097534;27;20220;-48
2022/08/11 05:12:29;;;;;;;3.20;2.50;;;15.50;99.90;;;;;;5111544;27;20626;-46
2022/08/11 05:35:08;;;;;;;6.13;2.90;;;15.90;99.90;;;;;;5108887;27;20224;-50
2022/08/11 05:57:17;;;;;;;2.87;2.40;;;16.60;99.90;;;;;;5092964;27;20208;-49
2022/08/11 05:59:46;;;;;;;4.37;2.93;;;16.70;99.90;;;;;;5112277;27;20224;-48
2022/08/11 06:02:14;;;;;;;3.17;2.67;;;16.70;99.90;;;;;;5098379;27;20214;-47
2022/08/11 06:04:41;;;;;;;5.17;3.00;;;16.80;99.90;;;;;;5101791;27;20212;-51
2022/08/11 06:07:11;;;;;;;6.77;3.00;;;16.90;99.90;;;;;;5106113;27;20546;-48
2022/08/11 06:09:47;;;;;;;5.63;2.63;;;16.90;99.90;;;;;;5109717;27;20231;-46
2022/08/11 06:12:19;;;;;;;6.63;2.97;;;17.00;99.90;;;;;;5096765;27;20199;-47
2022/08/11 06:14:48;;;;;;;5.03;2.53;;;17.10;99.90;;;;;;5111749;27;20197;-49
2022/08/11 06:17:23;;;;;;;2.83;2.50;;;17.20;99.90;;;;;;5110677;27;20195;-50
2022/08/11 06:19:56;;;;;;;3.87;3.17;;;17.30;99.90;;;;;;5103275;27;20242;-52
2022/08/11 06:22:23;;;;;;;4.80;3.30;;;17.40;99.90;;;;;;5113045;27;20220;-48
2022/08/11 06:24:56;;;;;;;6.17;2.80;;;17.50;99.90;;;;;;5111448;27;20216;-50
2022/08/11 06:27:25;;;;;;;4.80;2.47;;;17.60;99.90;;;;;;5089472;27;21938;-46
2022/08/11 06:29:54;;;;;;;3.17;2.77;;;17.70;99.90;;;;;;5110721;27;20213;-63
2022/08/11 06:32:24;;;;;;;3.73;3.20;;;17.80;99.90;;;;;;5111004;27;20200;-63
2022/08/11 06:35:01;;;;;;;2.60;2.40;;;17.80;99.90;;;;;;5103111;27;20204;-63
2022/08/11 06:37:41;;;;;;;2.57;2.37;;;18.00;99.90;;;;;;5103136;28;20196;-63
2022/08/11 06:40:13;;;;;;;4.60;2.50;;;18.10;99.90;;;;;;5108894;27;20218;-64
2022/08/11 06:42:51;;;;;;;2.97;2.30;;;18.30;99.90;;;;;;5111289;27;20571;-62
2022/08/11 06:45:34;;;;;;;2.20;2.10;;;18.40;99.90;;;;;;5099557;27;20192;-66
2022/08/11 06:48:01;;;;;;;2.97;2.40;;;18.50;99.90;;;;;;5108351;27;20193;-66
2022/08/11 06:53:18;;;;;;;2.70;2.40;;;18.70;99.90;;;;;;5100437;27;20181;-65
2022/08/11 07:01:36;;;;;;;2.40;2.20;;;19.10;99.90;;;;;;5116236;27;20738;-63
2022/08/11 07:04:07;;;;;;;2.80;2.60;;;19.20;99.90;;;;;;5105239;27;20216;-64
2022/08/11 07:06:43;;;;;;;4.20;2.40;;;19.20;99.90;;;;;;5107005;27;20832;-63
2022/08/11 07:15:43;;;;;;;2.60;2.00;;;19.70;99.90;;;;;;5095498;27;20188;-63
2022/08/11 07:29:38;;;;;;;2.00;1.80;;;20.20;99.90;;;;;;5107328;28;20208;-62
2022/08/11 07:32:26;;;;;;;2.27;2.00;;;20.30;99.90;;;;;;5092538;27;21020;-62
2022/08/11 07:34:59;;;;;;;4.43;2.53;;;20.40;99.90;;;;;;5105511;28;20205;-62
2022/08/11 07:37:29;;;;;;;5.43;1.83;;;20.50;99.90;;;;;;5109998;27;20223;-67
2022/08/11 07:39:58;;;;;;;3.90;2.37;;;20.60;99.90;;;;;;5107132;27;20225;-62
2022/08/11 07:42:30;;;;;;;4.40;2.20;;;20.70;99.90;;;;;;5110055;27;20541;-62
2022/08/11 07:53:17;;;;;;;5.13;2.07;;;21.10;99.90;;;;;;5105610;27;20489;-62
2022/08/11 07:55:47;;;;;;;2.50;1.87;;;21.30;99.90;;;;;;5112409;27;20201;-61
2022/08/11 08:17:51;;;;;;;2.37;2.10;;;22.20;99.90;;;;;;5114679;27;20197;-62
2022/08/11 08:20:21;;;;;;;2.90;1.90;;;22.30;99.90;;;;;;5098088;27;20228;-60
2022/08/11 08:22:55;;;;;;;1.60;1.50;;;22.40;99.90;;;;;;5107556;27;20185;-61
2022/08/11 08:25:23;;;;;;;11.23;2.27;;;22.60;99.90;;;;;;5098621;27;20308;-59
2022/08/11 08:27:51;;;;;;;2.60;2.10;;;22.70;99.90;;;;;;5105177;27;20205;-64
2022/08/11 08:33:04;;;;;;;6.30;2.23;;;22.90;99.90;;;;;;5114361;27;20196;-61
2022/08/11 08:35:33;;;;;;;4.37;1.93;;;23.10;99.90;;;;;;5096896;27;21493;-62
2022/08/11 08:38:00;;;;;;;4.00;1.90;;;23.20;99.90;;;;;;5111764;27;20714;-61
2022/08/11 08:40:27;;;;;;;7.20;2.10;;;23.30;99.90;;;;;;5105047;27;20842;-62
2022/08/11 08:42:58;;;;;;;5.40;2.00;;;23.40;99.90;;;;;;5108047;27;20300;-62
2022/08/11 08:45:26;;;;;;;4.32;2.15;;;23.60;99.90;;;;;;5106438;27;20202;-64
2022/08/11 08:47:58;;;;;;;2.40;2.20;;;23.70;99.20;;;;;;5112198;27;20276;-60
2022/08/11 08:51:33;;;;;;;4.15;2.60;;;23.70;98.90;;;;;;5100269;27;20216;-61
2022/08/11 08:53:21;;;;;;;2.22;2.13;;;23.80;98.70;;;;;;5105240;27;20924;-61
2022/08/11 08:55:50;;;;;;;3.28;2.05;;;24.10;98.00;;;;;;5104643;27;20565;-62
2022/08/11 08:58:21;;;;;;;2.55;1.80;;;24.20;97.70;;;;;;5099798;27;20916;-62
2022/08/11 09:00:51;;;;;;;2.55;2.35;;;24.30;97.50;;;;;;5108330;27;20231;-61
2022/08/11 09:03:19;;;;;;;3.72;1.95;;;24.30;97.40;;;;;;5114491;27;20188;-61
2022/08/11 09:05:47;;;;;;;3.65;1.80;;;24.40;96.80;;;;;;5102998;27;20208;-60
2022/08/11 09:08:14;;;;;;;2.33;1.60;;;24.60;95.40;;;;;;5109161;27;20222;-59
2022/08/11 09:10:42;;;;;;;2.55;1.60;;;24.70;94.30;;;;;;5105161;27;20281;-62
2022/08/11 09:13:09;;;;;;;1.48;1.38;;;24.90;93.90;;;;;;5105734;27;20197;-60
2022/08/11 09:15:36;;;;;;;2.30;1.80;;;25.00;92.90;;;;;;5110902;27;20197;-59
2022/08/11 09:18:08;;;;;;;1.60;1.50;;;24.90;92.70;;;;;;5110475;27;20238;-60
2022/08/11 09:20:37;;;;;;;2.53;1.35;;;25.00;92.40;;;;;;5100127;27;20685;-59
2022/08/11 09:28:49;;;;;;;2.05;1.73;;;25.20;90.60;;;;;;5067516;27;20244;-60
2022/08/11 09:31:16;;;;;;;1.65;1.30;;;25.30;90.10;;;;;;5106850;27;20189;-60
2022/08/11 09:33:45;;;;;;;4.10;1.52;;;25.30;89.70;;;;;;5107129;27;20200;-47
2022/08/11 09:41:46;;;;;;;3.92;1.48;;;25.60;86.70;;;;;;5107427;27;20221;-47
2022/08/11 09:46:59;;;;;;;2.67;1.48;;;25.80;85.70;;;;;;5108265;27;20189;-45
2022/08/11 09:49:27;;;;;;;2.50;1.60;;;25.90;85.90;;;;;;5111193;27;20221;-49
2022/08/11 09:51:55;;;;;;;6.93;1.50;;;25.90;84.80;;;;;;5104399;27;20202;-44
2022/08/11 09:54:25;;;;;;;1.80;1.38;;;25.90;84.80;;;;;;5105429;27;20208;-46
2022/08/11 09:59:39;;;;;;;1.63;1.50;;;25.90;82.70;;;;;;5109319;27;20254;-48
2022/08/11 10:02:07;;;;;;;2.40;1.40;;;25.80;82.30;;;;;;5104986;27;20216;-48
2022/08/11 10:04:38;;;;;;;4.45;1.52;;;25.80;82.10;;;;;;5112237;27;20212;-48
2022/08/11 10:07:05;;;;;;;2.45;1.73;;;25.80;81.60;;;;;;5108993;27;20193;-62
2022/08/11 10:09:38;;;;;;;2.17;1.70;;;25.90;82.00;;;;;;5091027;27;20258;-51
2022/08/11 10:12:09;;;;;;;1.75;1.65;;;26.10;80.80;;;;;;5108406;27;20926;-49
2022/08/11 10:17:30;;;;;;;2.42;1.63;;;26.10;79.40;;;;;;5106153;27;20199;-46
2022/08/11 10:20:01;;;;;;;2.70;1.58;;;26.10;80.20;;;;;;5105368;27;20228;-45
2022/08/11 10:28:04;;;;;;;3.00;1.52;;;26.20;78.90;;;;;;5105054;27;20193;-48
2022/08/11 10:36:04;;;;;;;2.22;1.55;;;26.30;76.50;;;;;;5109952;27;20196;-45
2022/08/11 10:38:32;;;;;;;2.58;1.35;;;26.30;75.00;;;;;;5099581;27;20468;-48
2022/08/11 10:43:46;;;;;;;1.83;1.23;;;26.50;74.50;;;;;;5097727;27;20284;-50
2022/08/11 10:49:00;;;;;;;1.50;1.40;;;27.10;72.60;;;;;;5107443;27;20337;-48
2022/08/11 10:59:47;;;;;;;3.90;1.95;;;27.10;71.10;;;;;;5100866;27;20212;-46
2022/08/11 11:02:15;;;;;;;4.22;1.55;;;27.20;69.50;;;;;;5114481;27;20620;-46
2022/08/11 11:04:57;;;;;;;2.33;2.10;;;27.30;69.20;;;;;;5104787;27;20940;-45
2022/08/11 11:07:35;;;;;;;2.53;2.28;;;27.20;67.70;;;;;;5099776;28;20193;-49
2022/08/11 11:10:05;;;;;;;2.10;1.90;;;27.10;67.90;;;;;;5098651;27;20216;-47
2022/08/11 11:18:25;;;;;;;3.55;3.20;;;27.50;66.60;;;;;;5057388;28;20229;-48
2022/08/11 11:20:56;;;;;;;3.83;3.03;;;27.60;66.10;;;;;;5049437;28;20203;-46
2022/08/11 11:23:27;;;;;;;4.07;3.08;;;27.50;65.90;;;;;;5073628;28;20571;-45
2022/08/11 11:26:26;;;;;;;3.47;3.17;;;27.60;65.70;;;;;;5102701;28;20201;-45
2022/08/11 11:29:15;;;;;;;2.95;2.10;;;27.60;65.40;;;;;;5086695;28;20839;-49
2022/08/11 11:31:56;;;;;;;3.00;2.17;;;27.60;65.10;;;;;;5105570;28;20247;-49
2022/08/11 11:34:39;;;;;;;1.80;1.70;;;27.70;63.90;;;;;;5106636;27;20580;-46
2022/08/11 11:37:06;;;;;;;1.77;1.40;;;27.60;63.90;;;;;;5109544;28;20196;-46
2022/08/11 11:39:35;;;;;;;1.85;1.75;;;27.50;63.60;;;;;;5111028;27;20221;-45
2022/08/11 11:42:04;;;;;;;2.90;1.30;;;27.50;63.40;;;;;;5105167;28;20227;-45
2022/08/11 11:44:32;;;;;;;2.95;1.15;;;27.50;62.30;;;;;;5092885;28;20565;-47
2022/08/11 11:47:01;;;;;;;1.65;1.00;;;27.40;61.90;;;;;;5101258;28;20197;-50
2022/08/11 11:49:31;;;;;;;1.75;1.00;;;27.40;60.70;;;;;;5107207;27;20219;-45
2022/08/11 11:51:59;;;;;;;2.30;1.08;;;27.50;61.30;;;;;;5102545;28;20714;-45
2022/08/11 11:54:28;;;;;;;1.08;1.05;;;27.60;60.10;;;;;;5099175;28;20911;-45
2022/08/11 11:56:56;;;;;;;2.63;1.35;;;27.80;60.60;;;;;;5103672;28;20201;-50
2022/08/11 12:02:32;;;;;;;1.08;1.02;;;27.90;59.70;;;;;;5102341;28;20282;-45
2022/08/11 12:05:00;;;;;;;3.20;1.50;;;27.90;60.10;;;;;;5102228;28;20705;-45
2022/08/11 12:10:14;;;;;;;5.07;1.40;;;28.30;60.40;;;;;;5109376;28;20235;-45
2022/08/11 12:15:25;;;;;;;2.88;0.93;;;28.50;59.30;;;;;;5093874;28;20304;-48
2022/08/11 12:17:55;;;;;;;0.98;0.98;;;28.60;58.10;;;;;;5112389;28;20204;-47
2022/08/11 12:20:22;;;;;;;0.80;0.80;;;28.80;57.90;;;;;;5107772;28;20237;-48
2022/08/11 12:28:20;;;;;;;1.77;1.00;;;28.90;57.30;;;;;;5111589;27;20201;-45
2022/08/11 12:30:48;;;;;;;3.50;1.30;;;28.90;57.40;;;;;;5099863;27;20208;-51
2022/08/11 12:33:17;;;;;;;2.42;1.10;;;29.00;56.60;;;;;;5105999;27;23022;-46
2022/08/11 12:35:45;;;;;;;2.85;1.05;;;29.10;56.20;;;;;;5113398;27;20201;-47
2022/08/11 12:38:14;;;;;;;1.35;1.00;;;29.10;55.90;;;;;;5103385;27;20795;-47
2022/08/11 12:46:21;;;;;;;2.85;1.10;;;29.20;56.00;;;;;;5106397;27;20235;-46
2022/08/11 12:51:58;;;;;;;0.80;0.80;;;29.20;54.70;;;;;;5040887;28;20199;-45
2022/08/11 12:54:29;;;;;;;1.00;1.00;;;29.30;54.20;;;;;;5034316;28;20210;-49
2022/08/11 13:05:17;;;;;;;1.73;0.95;;;29.70;52.80;;;;;;5109926;27;20653;-49
2022/08/11 13:07:46;;;;;;;0.82;0.82;;;29.70;52.50;;;;;;5102246;27;20211;-47
2022/08/11 13:12:46;;;;;;;1.27;1.00;;;29.90;51.40;;;;;;5118105;27;20223;-48
2022/08/11 13:13:03;;;;;;;1.02;0.70;;;30.00;51.70;;;;;;5107263;27;20201;-48
2022/08/11 13:15:30;;;;;;;1.45;1.08;;;30.20;51.30;;;;;;5095116;27;20193;-49
2022/08/11 13:17:59;;;;;;;1.15;1.00;;;30.40;50.90;;;;;;5120187;27;20565;-45
2022/08/11 13:20:28;;;;;;;1.30;0.88;;;30.90;50.00;;;;;;5098453;27;20199;-48
2022/08/11 13:22:57;;;;;;;0.70;0.70;;;31.10;50.70;;;;;;5099207;27;20209;-45
2022/08/11 13:25:26;;;;;;;1.13;0.95;;;31.40;49.30;;;;;;5102635;27;20200;-48
2022/08/11 13:27:56;;;;;;;0.90;0.90;;;31.60;48.10;;;;;;5109237;27;20200;-47
2022/08/11 13:33:11;;;;;;;0.80;0.80;;;31.80;47.80;;;;;;5109522;27;20277;-52
2022/08/11 13:35:41;;;;;;;3.50;0.98;;;32.00;47.00;;;;;;5107081;27;20196;-47
2022/08/11 13:38:11;;;;;;;0.50;0.50;;;32.10;46.50;;;;;;5106031;27;20205;-46
2022/08/11 13:40:38;;;;;;;0.77;0.60;;;32.30;46.30;;;;;;5103080;27;20197;-45
2022/08/11 13:43:05;;;;;;;1.20;0.90;;;32.50;45.50;;;;;;5106534;27;20215;-47
2022/08/11 13:45:33;;;;;;;2.80;1.00;;;32.60;45.20;;;;;;5112630;27;20192;-48
2022/08/11 13:48:01;;;;;;;0.98;0.90;;;32.90;44.70;;;;;;5100334;27;20580;-46
2022/08/11 13:53:11;;;;;;;1.35;0.75;;;33.60;85.40;;;;;;5110809;27;20189;-48
2022/08/11 13:55:40;;;;;;;1.10;1.00;;;33.50;43.20;;;;;;5108539;27;20276;-46
2022/08/11 13:58:10;;;;;;;1.02;0.90;;;33.70;43.70;;;;;;5109214;27;20205;-46
2022/08/11 14:00:37;;;;;;;2.58;0.90;;;34.10;42.90;;;;;;5097300;27;20276;-47
2022/08/11 14:03:10;;;;;;;1.13;0.80;;;33.80;43.60;;;;;;5102449;27;20217;-48
2022/08/11 14:05:40;;;;;;;2.83;1.10;;;33.80;42.70;;;;;;5104178;27;20614;-50
2022/08/11 14:08:13;;;;;;;0.80;0.80;;;34.10;42.20;;;;;;5103891;27;20423;-49
2022/08/11 14:10:40;;;;;;;1.20;1.10;;;34.30;42.00;;;;;;5102341;27;20221;-51
2022/08/11 14:16:11;;;;;;;1.60;1.10;;;34.50;41.20;;;;;;5081246;27;20742;-48
2022/08/11 14:18:44;;;;;;;1.50;0.90;;;34.70;41.60;;;;;;5101244;27;20220;-51
2022/08/11 14:24:03;;;;;;;1.35;0.75;;;35.00;40.70;;;;;;5103740;27;20554;-50
2022/08/11 14:26:35;;;;;;;1.35;0.88;;;35.10;39.90;;;;;;5106628;27;20228;-48
2022/08/11 14:29:07;;;;;;;0.80;0.80;;;35.10;39.70;;;;;;5107598;27;20303;-46
2022/08/11 14:31:36;;;;;;;1.88;0.85;;;35.20;38.40;;;;;;5112589;27;20213;-47
2022/08/11 14:34:07;;;;;;;1.95;0.95;;;35.30;38.60;;;;;;5101297;27;20205;-47
2022/08/11 14:36:36;;;;;;;1.48;0.95;;;35.30;38.80;;;;;;5106425;27;20235;-46
2022/08/11 14:39:11;;;;;;;1.45;1.10;;;35.60;38.20;;;;;;5101077;27;20729;-47
2022/08/11 14:47:13;;;;;;;1.08;0.90;;;36.00;38.60;;;;;;5100398;27;20181;-48
2022/08/11 14:49:41;;;;;;;0.88;0.88;;;35.70;38.50;;;;;;5099979;27;20216;-50
2022/08/11 14:52:13;;;;;;;1.83;1.00;;;35.80;39.10;;;;;;5103470;27;20262;-47
2022/08/11 14:57:29;;;;;;;1.25;1.15;;;35.90;40.30;;;;;;5108849;27;20663;-46
2022/08/11 15:00:00;;;;;;;1.40;1.15;;;36.20;40.40;;;;;;5098478;27;20220;-50
2022/08/11 15:05:13;;;;;;;2.60;1.08;;;35.80;40.50;;;;;;5091572;27;20213;-48
2022/08/11 15:07:41;;;;;;;1.92;1.20;;;35.60;41.20;;;;;;5102670;27;21037;-47
2022/08/11 15:10:10;;;;;;;0.98;0.98;;;36.10;41.00;;;;;;5099298;27;20256;-48
2022/08/11 15:12:41;;;;;;;1.90;0.93;;;36.40;39.80;;;;;;5101385;28;20872;-45
2022/08/11 15:17:58;;;;;;;2.30;1.10;;;36.70;39.40;;;;;;5109231;27;20855;-45
2022/08/11 15:26:00;;;;;;;3.05;1.55;;;36.70;39.40;;;;;;5102622;27;20277;-45
2022/08/11 15:45:46;;;;;;;2.65;1.20;;;36.60;40.20;;;;;;5087294;28;20217;-48
2022/08/11 15:48:09;;;;;;;4.70;1.20;;;36.60;39.80;;;;;;5090582;28;20230;-48
2022/08/11 15:50:41;;;;;;;8.13;2.20;;;36.70;39.70;;;;;;5096779;28;20208;-48
2022/08/11 15:53:16;;;;;;;5.60;1.45;;;36.50;40.40;;;;;;5095300;28;20204;-50
2022/08/11 15:55:45;;;;;;;35.47;3.58;;;36.50;40.80;;;;;;5101933;28;20204;-46
2022/08/11 16:06:40;;;;;;;2.00;1.45;;;37.00;39.00;;;;;;5102005;27;20232;-49
2022/08/11 16:09:09;;;;;;;1.98;1.10;;;36.90;39.70;;;;;;5108291;27;20569;-46
2022/08/11 16:11:38;;;;;;;3.42;1.10;;;37.00;39.40;;;;;;5107288;27;20229;-51
2022/08/11 16:16:56;;;;;;;1.35;1.00;;;36.60;39.20;;;;;;5111286;27;20326;-49
2022/08/11 16:19:26;;;;;;;2.75;0.90;;;36.30;39.40;;;;;;5111030;27;20223;-45
2022/08/11 16:21:55;;;;;;;1.70;0.90;;;36.40;39.40;;;;;;5097217;27;20205;-45
2022/08/11 16:24:25;;;;;;;6.30;1.48;;;36.10;39.20;;;;;;5110679;27;20588;-46
2022/08/11 16:26:54;;;;;;;1.20;1.00;;;36.00;40.00;;;;;;5098087;27;20204;-45
2022/08/11 16:29:24;;;;;;;1.52;1.10;;;35.80;40.50;;;;;;5111921;27;20304;-52
2022/08/11 16:40:10;;;;;;;2.22;0.93;;;33.40;42.40;;;;;;5103720;27;20213;-52
2022/08/11 16:48:10;;;;;;;3.10;1.10;;;31.50;45.30;;;;;;5118271;27;20333;-45
2022/08/11 16:50:39;;;;;;;3.00;1.40;;;31.00;45.60;;;;;;5103031;27;20212;-50
2022/08/11 16:53:06;;;;;;;1.30;1.20;;;30.70;46.40;;;;;;5109491;27;20197;-47
2022/08/11 16:55:34;;;;;;;3.17;1.42;;;30.50;50.30;;;;;;5109141;27;20278;-47
2022/08/11 17:00:50;;;;;;;2.28;1.60;;;29.90;47.60;;;;;;5104812;27;21902;-46
2022/08/11 17:14:36;;;;;;;3.47;1.23;;;28.70;49.80;;;;;;5104525;27;20193;-47
2022/08/11 17:17:11;;;;;;;1.60;1.00;;;28.50;53.10;;;;;;5098111;27;20261;-46
2022/08/11 17:19:41;;;;;;;3.30;1.17;;;28.40;50.40;;;;;;5119296;27;20212;-45
2022/08/11 17:24:53;;;;;;;1.58;0.88;;;28.10;51.20;;;;;;5109509;27;20661;-44
2022/08/11 17:27:22;;;;;;;2.80;1.20;;;27.90;52.80;;;;;;5103270;27;20216;-45
2022/08/11 17:29:52;;;;;;;1.13;1.00;;;27.90;51.50;;;;;;5115954;27;20217;-44
2022/08/11 17:35:30;;;;;;;1.35;1.02;;;27.70;51.80;;;;;;5117277;27;20203;-44
2022/08/11 17:38:05;;;;;;;1.17;1.00;;;27.70;52.00;;;;;;5098582;27;20216;-46
2022/08/11 17:40:37;;;;;;;1.05;0.90;;;27.40;72.90;;;;;;5105585;27;20219;-45
2022/08/11 17:48:41;;;;;;;0.88;0.70;;;27.30;83.50;;;;;;5103043;27;20228;-45
2022/08/11 17:51:11;;;;;;;2.15;1.10;;;27.10;85.70;;;;;;5106129;27;20220;-46
2022/08/11 18:03:27;;;;;;;4.68;1.20;;;26.80;89.70;;;;;;5103579;27;20196;-45
2022/08/11 18:04:50;;;;;;;3.03;1.10;;;26.80;77.30;;;;;;5111315;27;20197;-44
